Terminal Aerodrome Forecast
Issued by NWS

Home | Current Version | Previous Version | Text Only | Print | Product List | Glossary On
Versions: 1 2 3 4 5 6 7 8 9 10 11 12 13 14 15 16
356
FTAK31 PAJN 300535
TAFAKT
TAF
PAKT 300535Z 3006/3106 VRB04KT P6SM -SHRA FEW020 OVC035
      TEMPO 3006/3010 BKN025 OVC035
     FM301000 VRB03KT P6SM BCFG VCSH SCT005 OVC020
     FM302300 14015G25KT P6SM VCSH OVC020 WS020/16040KT
      AMD LTD TO CLD VIS AND WIND 3006/3015=

USA.gov is the U.S. government's official web portal to all federal, state and local government web resources and services.